Aviation Digital Data Service (ADDS)

Output produced by TAFs form (1352 UTC 01 August 2014)
found at http://www.aviationweather.gov/adds/tafs/
 
KMDT 011322Z 0113/0212 12004KT 5SM HZ BKN100 
     FM011430 16003KT P6SM SCT060 
     FM011800 14005KT P6SM -SHRA BKN060 
     FM020400 10005KT P6SM -SHRA OVC040